sensor_id;sensor_type;location;lat;lon;timestamp;temperature;humidity
12655;DHT22;6392;44.644;11.448;2023-04-16T00:00:57;14.40;99.90
12655;DHT22;6392;44.644;11.448;2023-04-16T00:03:24;14.40;99.90
12655;DHT22;6392;44.644;11.448;2023-04-16T00:05:51;14.30;99.90
12655;DHT22;6392;44.644;11.448;2023-04-16T00:08:20;14.30;99.90
12655;DHT22;6392;44.644;11.448;2023-04-16T00:10:48;14.30;99.90
12655;DHT22;6392;44.644;11.448;2023-04-16T00:13:17;14.20;99.90
12655;DHT22;6392;44.644;11.448;2023-04-16T00:15:43;14.20;99.90
12655;DHT22;6392;44.644;11.448;2023-04-16T00:18:10;14.20;99.90
12655;DHT22;6392;44.644;11.448;2023-04-16T00:20:37;14.20;99.90
12655;DHT22;6392;44.644;11.448;2023-04-16T00:23:04;14.20;99.90
12655;DHT22;6392;44.644;11.448;2023-04-16T00:25:31;14.10;99.90
12655;DHT22;6392;44.644;11.448;2023-04-16T00:27:58;14.10;99.90
12655;DHT22;6392;44.644;11.448;2023-04-16T00:30:26;14.00;99.90
12655;DHT22;6392;44.644;11.448;2023-04-16T00:32:53;14.00;99.90
12655;DHT22;6392;44.644;11.448;2023-04-16T00:35:20;14.00;99.90
12655;DHT22;6392;44.644;11.448;2023-04-16T00:37:46;14.00;99.90
12655;DHT22;6392;44.644;11.448;2023-04-16T00:40:13;14.00;99.90
12655;DHT22;6392;44.644;11.448;2023-04-16T00:42:40;14.00;99.90
12655;DHT22;6392;44.644;11.448;2023-04-16T00:45:08;14.00;99.90
12655;DHT22;6392;44.644;11.448;2023-04-16T00:47:36;13.90;99.90
12655;DHT22;6392;44.644;11.448;2023-04-16T00:50:04;13.90;99.90
12655;DHT22;6392;44.644;11.448;2023-04-16T00:52:31;13.90;99.90
12655;DHT22;6392;44.644;11.448;2023-04-16T00:54:58;13.90;99.90
12655;DHT22;6392;44.644;11.448;2023-04-16T00:57:24;13.80;99.90
12655;DHT22;6392;44.644;11.448;2023-04-16T00:59:52;13.80;99.90
12655;DHT22;6392;44.644;11.448;2023-04-16T01:02:19;13.70;99.90
12655;DHT22;6392;44.644;11.448;2023-04-16T01:04:47;13.70;99.90
12655;DHT22;6392;44.644;11.448;2023-04-16T01:07:14;13.70;99.90
12655;DHT22;6392;44.644;11.448;2023-04-16T01:09:41;13.70;99.90
12655;DHT22;6392;44.644;11.448;2023-04-16T01:12:08;13.70;99.90
12655;DHT22;6392;44.644;11.448;2023-04-16T01:14:35;13.60;99.90
12655;DHT22;6392;44.644;11.448;2023-04-16T01:17:01;13.60;99.90
12655;DHT22;6392;44.644;11.448;2023-04-16T01:19:28;13.60;99.90
12655;DHT22;6392;44.644;11.448;2023-04-16T01:21:57;13.50;99.90
12655;DHT22;6392;44.644;11.448;2023-04-16T01:24:24;13.50;99.90
12655;DHT22;6392;44.644;11.448;2023-04-16T01:26:51;13.50;99.90
12655;DHT22;6392;44.644;11.448;2023-04-16T01:29:18;13.40;99.90
12655;DHT22;6392;44.644;11.448;2023-04-16T01:31:45;13.30;99.90
12655;DHT22;6392;44.644;11.448;2023-04-16T01:34:12;13.20;99.90
12655;DHT22;6392;44.644;11.448;2023-04-16T01:36:38;13.20;99.90
12655;DHT22;6392;44.644;11.448;2023-04-16T01:39:07;13.10;99.90
12655;DHT22;6392;44.644;11.448;2023-04-16T01:41:35;13.10;99.90
12655;DHT22;6392;44.644;11.448;2023-04-16T01:44:02;13.00;99.90
12655;DHT22;6392;44.644;11.448;2023-04-16T01:46:30;13.00;99.90
12655;DHT22;6392;44.644;11.448;2023-04-16T01:48:57;13.00;99.90
12655;DHT22;6392;44.644;11.448;2023-04-16T01:51:24;12.90;99.90
12655;DHT22;6392;44.644;11.448;2023-04-16T01:53:51;12.80;99.90
12655;DHT22;6392;44.644;11.448;2023-04-16T01:56:19;12.80;99.90
12655;DHT22;6392;44.644;11.448;2023-04-16T01:58:46;12.70;99.90
12655;DHT22;6392;44.644;11.448;2023-04-16T02:01:13;12.60;99.90
12655;DHT22;6392;44.644;11.448;2023-04-16T02:03:40;12.60;99.90
12655;DHT22;6392;44.644;11.448;2023-04-16T02:06:07;12.50;99.90
12655;DHT22;6392;44.644;11.448;2023-04-16T02:08:34;12.50;99.90
12655;DHT22;6392;44.644;11.448;2023-04-16T02:11:00;12.50;99.90
12655;DHT22;6392;44.644;11.448;2023-04-16T02:13:29;12.40;99.90
12655;DHT22;6392;44.644;11.448;2023-04-16T02:15:55;12.30;99.90
12655;DHT22;6392;44.644;11.448;2023-04-16T02:18:22;12.20;99.90
12655;DHT22;6392;44.644;11.448;2023-04-16T02:20:49;12.20;99.90
12655;DHT22;6392;44.644;11.448;2023-04-16T02:23:16;12.10;99.90
12655;DHT22;6392;44.644;11.448;2023-04-16T02:25:44;12.00;99.90
12655;DHT22;6392;44.644;11.448;2023-04-16T02:28:11;12.00;99.90
12655;DHT22;6392;44.644;11.448;2023-04-16T02:30:40;11.90;99.90
12655;DHT22;6392;44.644;11.448;2023-04-16T02:33:07;11.90;99.90
12655;DHT22;6392;44.644;11.448;2023-04-16T02:35:35;11.80;99.90
12655;DHT22;6392;44.644;11.448;2023-04-16T02:38:02;11.80;99.90
12655;DHT22;6392;44.644;11.448;2023-04-16T02:40:29;11.80;99.90
12655;DHT22;6392;44.644;11.448;2023-04-16T02:42:56;11.80;99.90
12655;DHT22;6392;44.644;11.448;2023-04-16T02:45:23;11.80;99.90
12655;DHT22;6392;44.644;11.448;2023-04-16T02:47:51;11.80;99.90
12655;DHT22;6392;44.644;11.448;2023-04-16T02:50:18;11.90;99.90
12655;DHT22;6392;44.644;11.448;2023-04-16T02:52:45;11.90;99.90
12655;DHT22;6392;44.644;11.448;2023-04-16T02:55:12;11.90;99.90
12655;DHT22;6392;44.644;11.448;2023-04-16T02:57:39;11.90;99.90
12655;DHT22;6392;44.644;11.448;2023-04-16T03:00:07;11.80;99.90
12655;DHT22;6392;44.644;11.448;2023-04-16T03:02:34;11.90;99.90
12655;DHT22;6392;44.644;11.448;2023-04-16T03:05:02;11.90;99.90
12655;DHT22;6392;44.644;11.448;2023-04-16T03:07:29;11.90;99.90
12655;DHT22;6392;44.644;11.448;2023-04-16T03:09:56;11.90;99.90
12655;DHT22;6392;44.644;11.448;2023-04-16T03:12:23;12.00;99.90
12655;DHT22;6392;44.644;11.448;2023-04-16T03:14:50;11.90;99.90
12655;DHT22;6392;44.644;11.448;2023-04-16T03:17:17;11.90;99.90
12655;DHT22;6392;44.644;11.448;2023-04-16T03:19:43;11.90;99.90
12655;DHT22;6392;44.644;11.448;2023-04-16T03:22:12;11.90;99.90
12655;DHT22;6392;44.644;11.448;2023-04-16T03:24:38;12.00;99.90
12655;DHT22;6392;44.644;11.448;2023-04-16T03:27:05;11.90;99.90
12655;DHT22;6392;44.644;11.448;2023-04-16T03:29:32;11.90;99.90
12655;DHT22;6392;44.644;11.448;2023-04-16T03:31:59;11.90;99.90
12655;DHT22;6392;44.644;11.448;2023-04-16T03:34:26;11.80;99.90
12655;DHT22;6392;44.644;11.448;2023-04-16T03:36:52;11.80;99.90
12655;DHT22;6392;44.644;11.448;2023-04-16T03:39:20;11.70;99.90
12655;DHT22;6392;44.644;11.448;2023-04-16T03:41:47;11.60;99.90
12655;DHT22;6392;44.644;11.448;2023-04-16T03:44:14;11.60;99.90
12655;DHT22;6392;44.644;11.448;2023-04-16T03:46:41;11.60;99.90
12655;DHT22;6392;44.644;11.448;2023-04-16T03:49:08;11.60;99.90
12655;DHT22;6392;44.644;11.448;2023-04-16T03:51:34;11.60;99.90
12655;DHT22;6392;44.644;11.448;2023-04-16T03:54:01;11.60;99.90
12655;DHT22;6392;44.644;11.448;2023-04-16T03:56:30;11.60;99.90
12655;DHT22;6392;44.644;11.448;2023-04-16T03:58:56;11.60;99.90
12655;DHT22;6392;44.644;11.448;2023-04-16T04:01:23;11.60;99.90
12655;DHT22;6392;44.644;11.448;2023-04-16T04:03:50;11.60;99.90
12655;DHT22;6392;44.644;11.448;2023-04-16T04:06:17;11.60;99.90
12655;DHT22;6392;44.644;11.448;2023-04-16T04:08:44;11.50;99.90
12655;DHT22;6392;44.644;11.448;2023-04-16T04:11:10;11.50;99.90
12655;DHT22;6392;44.644;11.448;2023-04-16T04:13:39;11.50;99.90
12655;DHT22;6392;44.644;11.448;2023-04-16T04:16:06;11.50;99.90
12655;DHT22;6392;44.644;11.448;2023-04-16T04:18:33;11.50;99.90
12655;DHT22;6392;44.644;11.448;2023-04-16T04:21:03;11.40;99.90
12655;DHT22;6392;44.644;11.448;2023-04-16T04:23:30;11.50;99.90
12655;DHT22;6392;44.644;11.448;2023-04-16T04:25:57;11.50;99.90
12655;DHT22;6392;44.644;11.448;2023-04-16T04:28:23;11.40;99.90
12655;DHT22;6392;44.644;11.448;2023-04-16T04:30:52;11.40;99.90
12655;DHT22;6392;44.644;11.448;2023-04-16T04:33:18;11.40;99.90
12655;DHT22;6392;44.644;11.448;2023-04-16T04:35:45;11.40;99.90
12655;DHT22;6392;44.644;11.448;2023-04-16T04:38:12;11.30;99.90
12655;DHT22;6392;44.644;11.448;2023-04-16T04:40:39;11.30;99.90
12655;DHT22;6392;44.644;11.448;2023-04-16T04:43:05;11.20;99.90
12655;DHT22;6392;44.644;11.448;2023-04-16T04:45:32;11.10;99.90
12655;DHT22;6392;44.644;11.448;2023-04-16T04:48:00;11.10;99.90
12655;DHT22;6392;44.644;11.448;2023-04-16T04:50:27;11.00;99.90
12655;DHT22;6392;44.644;11.448;2023-04-16T04:52:54;11.00;99.90
12655;DHT22;6392;44.644;11.448;2023-04-16T04:55:20;11.00;99.90
12655;DHT22;6392;44.644;11.448;2023-04-16T04:57:47;11.00;99.90
12655;DHT22;6392;44.644;11.448;2023-04-16T05:00:14;11.00;99.90
12655;DHT22;6392;44.644;11.448;2023-04-16T05:02:41;11.00;99.90
12655;DHT22;6392;44.644;11.448;2023-04-16T05:05:10;10.90;99.90
12655;DHT22;6392;44.644;11.448;2023-04-16T05:07:36;10.90;99.90
12655;DHT22;6392;44.644;11.448;2023-04-16T05:10:04;10.90;99.90
12655;DHT22;6392;44.644;11.448;2023-04-16T05:12:31;11.00;99.90
12655;DHT22;6392;44.644;11.448;2023-04-16T05:14:57;11.00;99.90
12655;DHT22;6392;44.644;11.448;2023-04-16T05:17:24;11.00;99.90
12655;DHT22;6392;44.644;11.448;2023-04-16T05:19:51;10.90;99.90
12655;DHT22;6392;44.644;11.448;2023-04-16T05:22:19;10.90;99.90
12655;DHT22;6392;44.644;11.448;2023-04-16T05:24:46;10.90;99.90
12655;DHT22;6392;44.644;11.448;2023-04-16T05:27:12;11.00;99.90
12655;DHT22;6392;44.644;11.448;2023-04-16T05:29:39;11.00;99.90
12655;DHT22;6392;44.644;11.448;2023-04-16T05:32:06;11.00;99.90
12655;DHT22;6392;44.644;11.448;2023-04-16T05:34:33;11.10;99.90
12655;DHT22;6392;44.644;11.448;2023-04-16T05:37:00;11.10;99.90
12655;DHT22;6392;44.644;11.448;2023-04-16T05:39:28;11.10;99.90
12655;DHT22;6392;44.644;11.448;2023-04-16T05:41:55;11.20;99.90
12655;DHT22;6392;44.644;11.448;2023-04-16T05:44:22;11.20;99.90
12655;DHT22;6392;44.644;11.448;2023-04-16T05:46:48;11.30;99.90
12655;DHT22;6392;44.644;11.448;2023-04-16T05:49:15;11.30;99.90
12655;DHT22;6392;44.644;11.448;2023-04-16T05:51:43;11.30;99.90
12655;DHT22;6392;44.644;11.448;2023-04-16T05:54:09;11.30;99.90
12655;DHT22;6392;44.644;11.448;2023-04-16T05:56:38;11.30;99.90
12655;DHT22;6392;44.644;11.448;2023-04-16T05:59:04;11.40;99.90
12655;DHT22;6392;44.644;11.448;2023-04-16T06:01:31;11.40;99.90
12655;DHT22;6392;44.644;11.448;2023-04-16T06:03:58;11.40;99.90
12655;DHT22;6392;44.644;11.448;2023-04-16T06:06:25;11.50;99.90
12655;DHT22;6392;44.644;11.448;2023-04-16T06:08:52;11.50;99.90
12655;DHT22;6392;44.644;11.448;2023-04-16T06:11:19;11.50;99.90
12655;DHT22;6392;44.644;11.448;2023-04-16T06:13:47;11.60;99.90
12655;DHT22;6392;44.644;11.448;2023-04-16T06:16:13;11.60;99.90
12655;DHT22;6392;44.644;11.448;2023-04-16T06:18:40;11.60;99.90
12655;DHT22;6392;44.644;11.448;2023-04-16T06:21:07;11.70;99.90
12655;DHT22;6392;44.644;11.448;2023-04-16T06:23:34;11.80;99.90
12655;DHT22;6392;44.644;11.448;2023-04-16T06:26:00;11.80;99.90
12655;DHT22;6392;44.644;11.448;2023-04-16T06:28:27;11.80;99.90
12655;DHT22;6392;44.644;11.448;2023-04-16T06:30:55;11.90;99.90
12655;DHT22;6392;44.644;11.448;2023-04-16T06:33:22;11.90;99.90
12655;DHT22;6392;44.644;11.448;2023-04-16T06:35:49;12.00;99.90
12655;DHT22;6392;44.644;11.448;2023-04-16T06:38:16;12.00;99.90
12655;DHT22;6392;44.644;11.448;2023-04-16T06:40:44;12.10;99.90
12655;DHT22;6392;44.644;11.448;2023-04-16T06:43:10;12.10;99.90
12655;DHT22;6392;44.644;11.448;2023-04-16T06:45:37;12.20;99.90
12655;DHT22;6392;44.644;11.448;2023-04-16T06:48:05;12.30;99.90
12655;DHT22;6392;44.644;11.448;2023-04-16T06:50:32;12.30;99.90
12655;DHT22;6392;44.644;11.448;2023-04-16T06:52:59;12.40;99.90
12655;DHT22;6392;44.644;11.448;2023-04-16T06:55:26;12.50;99.90
12655;DHT22;6392;44.644;11.448;2023-04-16T06:57:53;12.50;99.90
12655;DHT22;6392;44.644;11.448;2023-04-16T07:00:19;12.50;99.90
12655;DHT22;6392;44.644;11.448;2023-04-16T07:02:46;12.50;99.90
12655;DHT22;6392;44.644;11.448;2023-04-16T07:05:14;12.60;99.90
12655;DHT22;6392;44.644;11.448;2023-04-16T07:07:41;12.60;99.90
12655;DHT22;6392;44.644;11.448;2023-04-16T07:10:08;12.60;99.90
12655;DHT22;6392;44.644;11.448;2023-04-16T07:12:35;12.70;99.90
12655;DHT22;6392;44.644;11.448;2023-04-16T07:15:02;12.80;99.90
12655;DHT22;6392;44.644;11.448;2023-04-16T07:17:31;12.80;99.90
12655;DHT22;6392;44.644;11.448;2023-04-16T07:19:58;12.80;99.90
12655;DHT22;6392;44.644;11.448;2023-04-16T07:22:26;12.90;99.90
12655;DHT22;6392;44.644;11.448;2023-04-16T07:24:53;12.90;99.90
12655;DHT22;6392;44.644;11.448;2023-04-16T07:27:20;12.90;99.90
12655;DHT22;6392;44.644;11.448;2023-04-16T07:29:46;13.00;99.90
12655;DHT22;6392;44.644;11.448;2023-04-16T07:32:14;13.00;99.90
12655;DHT22;6392;44.644;11.448;2023-04-16T07:34:41;13.00;99.90
12655;DHT22;6392;44.644;11.448;2023-04-16T07:37:08;13.10;99.90
12655;DHT22;6392;44.644;11.448;2023-04-16T07:39:36;13.10;99.90
12655;DHT22;6392;44.644;11.448;2023-04-16T07:42:03;13.20;99.90
12655;DHT22;6392;44.644;11.448;2023-04-16T07:44:30;13.20;99.90
12655;DHT22;6392;44.644;11.448;2023-04-16T07:46:57;13.20;99.90
12655;DHT22;6392;44.644;11.448;2023-04-16T07:49:23;13.30;99.90
12655;DHT22;6392;44.644;11.448;2023-04-16T07:51:50;13.30;99.90
12655;DHT22;6392;44.644;11.448;2023-04-16T07:54:17;13.40;99.90
12655;DHT22;6392;44.644;11.448;2023-04-16T07:56:45;13.40;99.90
12655;DHT22;6392;44.644;11.448;2023-04-16T07:59:12;13.40;99.90
12655;DHT22;6392;44.644;11.448;2023-04-16T08:01:39;13.50;99.90
12655;DHT22;6392;44.644;11.448;2023-04-16T08:04:06;13.60;99.90
12655;DHT22;6392;44.644;11.448;2023-04-16T08:06:32;13.60;99.90
12655;DHT22;6392;44.644;11.448;2023-04-16T08:08:59;13.70;99.90
12655;DHT22;6392;44.644;11.448;2023-04-16T08:11:26;13.80;99.90
12655;DHT22;6392;44.644;11.448;2023-04-16T08:13:55;13.90;99.90
12655;DHT22;6392;44.644;11.448;2023-04-16T08:16:21;14.00;99.90
12655;DHT22;6392;44.644;11.448;2023-04-16T08:18:48;14.00;99.90
12655;DHT22;6392;44.644;11.448;2023-04-16T08:21:15;14.10;99.90
12655;DHT22;6392;44.644;11.448;2023-04-16T08:23:42;14.10;99.90
12655;DHT22;6392;44.644;11.448;2023-04-16T08:26:08;14.10;99.90
12655;DHT22;6392;44.644;11.448;2023-04-16T08:28:35;14.10;99.90
12655;DHT22;6392;44.644;11.448;2023-04-16T08:31:04;14.10;99.90
12655;DHT22;6392;44.644;11.448;2023-04-16T08:33:31;14.20;99.90
12655;DHT22;6392;44.644;11.448;2023-04-16T08:35:57;14.20;99.90
12655;DHT22;6392;44.644;11.448;2023-04-16T08:38:24;14.30;99.90
12655;DHT22;6392;44.644;11.448;2023-04-16T08:40:51;14.30;99.90
12655;DHT22;6392;44.644;11.448;2023-04-16T08:43:19;14.40;99.90
12655;DHT22;6392;44.644;11.448;2023-04-16T08:45:49;14.40;99.90
12655;DHT22;6392;44.644;11.448;2023-04-16T08:48:17;14.50;99.90
12655;DHT22;6392;44.644;11.448;2023-04-16T08:50:46;14.60;99.90
12655;DHT22;6392;44.644;11.448;2023-04-16T08:53:15;14.70;99.90
12655;DHT22;6392;44.644;11.448;2023-04-16T08:55:45;14.80;99.90
12655;DHT22;6392;44.644;11.448;2023-04-16T08:58:13;14.80;99.90
12655;DHT22;6392;44.644;11.448;2023-04-16T09:00:40;14.80;99.90
12655;DHT22;6392;44.644;11.448;2023-04-16T09:03:07;14.80;99.90
12655;DHT22;6392;44.644;11.448;2023-04-16T09:05:36;14.80;99.90
12655;DHT22;6392;44.644;11.448;2023-04-16T09:08:03;14.80;99.90
12655;DHT22;6392;44.644;11.448;2023-04-16T09:10:30;14.90;99.90
12655;DHT22;6392;44.644;11.448;2023-04-16T09:12:57;14.90;99.90
12655;DHT22;6392;44.644;11.448;2023-04-16T09:15:24;15.00;99.90
12655;DHT22;6392;44.644;11.448;2023-04-16T09:17:51;15.10;99.90
12655;DHT22;6392;44.644;11.448;2023-04-16T09:20:18;15.10;99.90
12655;DHT22;6392;44.644;11.448;2023-04-16T09:22:46;15.20;99.90
12655;DHT22;6392;44.644;11.448;2023-04-16T09:25:13;15.20;99.90
12655;DHT22;6392;44.644;11.448;2023-04-16T09:27:40;15.20;99.90
12655;DHT22;6392;44.644;11.448;2023-04-16T09:30:17;15.20;99.90
12655;DHT22;6392;44.644;11.448;2023-04-16T09:32:46;15.30;99.90
12655;DHT22;6392;44.644;11.448;2023-04-16T09:35:13;15.30;99.90
12655;DHT22;6392;44.644;11.448;2023-04-16T09:37:40;15.30;99.90
12655;DHT22;6392;44.644;11.448;2023-04-16T09:40:08;15.40;99.90
12655;DHT22;6392;44.644;11.448;2023-04-16T09:42:35;15.40;99.90
12655;DHT22;6392;44.644;11.448;2023-04-16T09:45:02;15.40;99.90
12655;DHT22;6392;44.644;11.448;2023-04-16T09:47:37;15.50;99.90
12655;DHT22;6392;44.644;11.448;2023-04-16T09:50:04;15.50;99.90
12655;DHT22;6392;44.644;11.448;2023-04-16T09:52:31;15.60;99.90
12655;DHT22;6392;44.644;11.448;2023-04-16T09:55:01;15.60;99.90
12655;DHT22;6392;44.644;11.448;2023-04-16T09:57:29;15.70;99.90
12655;DHT22;6392;44.644;11.448;2023-04-16T10:00:00;15.70;99.90
12655;DHT22;6392;44.644;11.448;2023-04-16T10:02:27;15.70;99.90
12655;DHT22;6392;44.644;11.448;2023-04-16T10:04:54;15.80;99.90
12655;DHT22;6392;44.644;11.448;2023-04-16T10:07:21;15.80;99.90
12655;DHT22;6392;44.644;11.448;2023-04-16T10:09:48;15.80;99.90
12655;DHT22;6392;44.644;11.448;2023-04-16T10:12:16;15.80;99.90
12655;DHT22;6392;44.644;11.448;2023-04-16T10:14:45;15.90;99.90
12655;DHT22;6392;44.644;11.448;2023-04-16T10:17:12;15.90;99.90
12655;DHT22;6392;44.644;11.448;2023-04-16T10:19:38;15.90;99.90
12655;DHT22;6392;44.644;11.448;2023-04-16T10:22:05;16.00;99.90
12655;DHT22;6392;44.644;11.448;2023-04-16T10:24:33;16.00;99.90
12655;DHT22;6392;44.644;11.448;2023-04-16T10:27:00;16.10;99.90
12655;DHT22;6392;44.644;11.448;2023-04-16T10:29:28;16.10;99.90
12655;DHT22;6392;44.644;11.448;2023-04-16T10:31:56;16.10;99.90
12655;DHT22;6392;44.644;11.448;2023-04-16T10:34:23;16.10;99.90
12655;DHT22;6392;44.644;11.448;2023-04-16T10:36:51;16.10;99.90
12655;DHT22;6392;44.644;11.448;2023-04-16T10:39:19;16.20;99.90
12655;DHT22;6392;44.644;11.448;2023-04-16T10:41:46;16.20;99.90
12655;DHT22;6392;44.644;11.448;2023-04-16T10:44:14;16.20;99.90
12655;DHT22;6392;44.644;11.448;2023-04-16T10:46:42;16.30;99.90
12655;DHT22;6392;44.644;11.448;2023-04-16T10:49:14;16.30;99.90
12655;DHT22;6392;44.644;11.448;2023-04-16T10:51:42;16.30;99.90
12655;DHT22;6392;44.644;11.448;2023-04-16T10:54:22;16.30;99.90
12655;DHT22;6392;44.644;11.448;2023-04-16T10:56:49;16.40;99.90
12655;DHT22;6392;44.644;11.448;2023-04-16T10:59:19;16.40;99.90
12655;DHT22;6392;44.644;11.448;2023-04-16T11:01:46;16.40;99.90
12655;DHT22;6392;44.644;11.448;2023-04-16T11:04:32;16.40;99.90
12655;DHT22;6392;44.644;11.448;2023-04-16T11:06:59;16.50;99.90
12655;DHT22;6392;44.644;11.448;2023-04-16T11:09:45;16.50;99.90
12655;DHT22;6392;44.644;11.448;2023-04-16T11:12:13;16.50;99.90
12655;DHT22;6392;44.644;11.448;2023-04-16T11:14:40;16.40;99.90
12655;DHT22;6392;44.644;11.448;2023-04-16T11:17:08;16.40;99.90
12655;DHT22;6392;44.644;11.448;2023-04-16T11:19:36;16.40;99.90
12655;DHT22;6392;44.644;11.448;2023-04-16T11:22:03;16.50;99.90
12655;DHT22;6392;44.644;11.448;2023-04-16T11:24:30;16.50;99.90
12655;DHT22;6392;44.644;11.448;2023-04-16T11:26:57;16.60;99.90
12655;DHT22;6392;44.644;11.448;2023-04-16T11:29:24;16.60;99.90
12655;DHT22;6392;44.644;11.448;2023-04-16T11:31:51;16.70;99.90
12655;DHT22;6392;44.644;11.448;2023-04-16T11:34:18;16.70;99.90
12655;DHT22;6392;44.644;11.448;2023-04-16T11:36:46;16.70;99.90
12655;DHT22;6392;44.644;11.448;2023-04-16T11:39:14;16.80;99.90
12655;DHT22;6392;44.644;11.448;2023-04-16T11:41:43;16.80;99.90
12655;DHT22;6392;44.644;11.448;2023-04-16T11:44:17;16.90;99.90
12655;DHT22;6392;44.644;11.448;2023-04-16T11:46:44;16.90;99.90
12655;DHT22;6392;44.644;11.448;2023-04-16T11:49:11;17.00;99.90
12655;DHT22;6392;44.644;11.448;2023-04-16T11:51:40;17.00;99.90
12655;DHT22;6392;44.644;11.448;2023-04-16T11:54:08;17.00;99.90
12655;DHT22;6392;44.644;11.448;2023-04-16T11:56:35;17.10;99.90
12655;DHT22;6392;44.644;11.448;2023-04-16T11:59:06;17.10;99.90
12655;DHT22;6392;44.644;11.448;2023-04-16T12:01:33;17.20;99.90
12655;DHT22;6392;44.644;11.448;2023-04-16T12:04:00;17.20;99.90
12655;DHT22;6392;44.644;11.448;2023-04-16T12:06:28;17.20;99.90
12655;DHT22;6392;44.644;11.448;2023-04-16T12:08:56;17.20;99.90
12655;DHT22;6392;44.644;11.448;2023-04-16T12:11:37;17.30;99.90
12655;DHT22;6392;44.644;11.448;2023-04-16T12:14:08;17.30;99.90
12655;DHT22;6392;44.644;11.448;2023-04-16T12:16:35;17.40;99.90
12655;DHT22;6392;44.644;11.448;2023-04-16T12:19:01;17.40;99.90
12655;DHT22;6392;44.644;11.448;2023-04-16T12:21:35;17.40;99.90
12655;DHT22;6392;44.644;11.448;2023-04-16T12:24:02;17.50;99.90
12655;DHT22;6392;44.644;11.448;2023-04-16T12:26:34;17.50;99.90
12655;DHT22;6392;44.644;11.448;2023-04-16T12:29:14;17.60;99.90
12655;DHT22;6392;44.644;11.448;2023-04-16T12:31:41;17.60;99.90
12655;DHT22;6392;44.644;11.448;2023-04-16T12:34:08;17.80;99.90
12655;DHT22;6392;44.644;11.448;2023-04-16T12:36:35;17.80;99.90
12655;DHT22;6392;44.644;11.448;2023-04-16T12:39:02;18.00;99.90
12655;DHT22;6392;44.644;11.448;2023-04-16T12:41:29;18.00;99.90
12655;DHT22;6392;44.644;11.448;2023-04-16T12:44:02;18.00;99.90
12655;DHT22;6392;44.644;11.448;2023-04-16T12:46:30;17.90;99.90
12655;DHT22;6392;44.644;11.448;2023-04-16T12:48:57;18.00;99.90
12655;DHT22;6392;44.644;11.448;2023-04-16T12:51:24;18.10;99.90
12655;DHT22;6392;44.644;11.448;2023-04-16T12:53:51;18.20;99.90
12655;DHT22;6392;44.644;11.448;2023-04-16T12:56:18;18.50;99.90
12655;DHT22;6392;44.644;11.448;2023-04-16T12:58:45;18.70;99.90
12655;DHT22;6392;44.644;11.448;2023-04-16T13:01:15;18.80;99.90
12655;DHT22;6392;44.644;11.448;2023-04-16T13:03:43;18.90;99.90
12655;DHT22;6392;44.644;11.448;2023-04-16T13:06:10;18.80;99.90
12655;DHT22;6392;44.644;11.448;2023-04-16T13:08:36;18.90;99.90
12655;DHT22;6392;44.644;11.448;2023-04-16T13:11:03;19.00;99.90
12655;DHT22;6392;44.644;11.448;2023-04-16T13:13:30;19.00;99.90
12655;DHT22;6392;44.644;11.448;2023-04-16T13:15:57;19.10;99.90
12655;DHT22;6392;44.644;11.448;2023-04-16T13:18:24;19.10;99.90
12655;DHT22;6392;44.644;11.448;2023-04-16T13:20:53;19.10;99.90
12655;DHT22;6392;44.644;11.448;2023-04-16T13:23:20;19.30;99.90
12655;DHT22;6392;44.644;11.448;2023-04-16T13:25:46;19.30;99.90
12655;DHT22;6392;44.644;11.448;2023-04-16T13:28:13;19.30;99.90
12655;DHT22;6392;44.644;11.448;2023-04-16T13:30:40;19.30;99.90
12655;DHT22;6392;44.644;11.448;2023-04-16T13:33:07;19.30;99.90
12655;DHT22;6392;44.644;11.448;2023-04-16T13:35:35;19.50;99.90
12655;DHT22;6392;44.644;11.448;2023-04-16T13:38:03;19.70;99.90
12655;DHT22;6392;44.644;11.448;2023-04-16T13:40:30;19.90;99.90
12655;DHT22;6392;44.644;11.448;2023-04-16T13:42:56;20.00;99.90
12655;DHT22;6392;44.644;11.448;2023-04-16T13:45:23;20.10;99.90
12655;DHT22;6392;44.644;11.448;2023-04-16T13:47:52;20.20;99.90
12655;DHT22;6392;44.644;11.448;2023-04-16T13:50:19;20.20;99.90
12655;DHT22;6392;44.644;11.448;2023-04-16T13:52:46;20.20;99.90
12655;DHT22;6392;44.644;11.448;2023-04-16T13:55:15;20.40;99.90
12655;DHT22;6392;44.644;11.448;2023-04-16T13:57:43;20.50;99.90
12655;DHT22;6392;44.644;11.448;2023-04-16T14:00:11;20.70;99.90
12655;DHT22;6392;44.644;11.448;2023-04-16T14:02:38;20.80;99.90
12655;DHT22;6392;44.644;11.448;2023-04-16T14:05:05;20.90;99.90
12655;DHT22;6392;44.644;11.448;2023-04-16T14:07:32;21.10;99.90
12655;DHT22;6392;44.644;11.448;2023-04-16T14:09:59;21.20;99.90
12655;DHT22;6392;44.644;11.448;2023-04-16T14:12:27;21.20;99.90
12655;DHT22;6392;44.644;11.448;2023-04-16T14:14:54;21.20;99.90
12655;DHT22;6392;44.644;11.448;2023-04-16T14:17:21;21.20;99.90
12655;DHT22;6392;44.644;11.448;2023-04-16T14:19:47;21.10;99.90
12655;DHT22;6392;44.644;11.448;2023-04-16T14:22:14;21.00;99.90
12655;DHT22;6392;44.644;11.448;2023-04-16T14:24:42;21.30;99.90
12655;DHT22;6392;44.644;11.448;2023-04-16T14:27:09;21.40;99.90
12655;DHT22;6392;44.644;11.448;2023-04-16T14:29:38;21.50;99.90
12655;DHT22;6392;44.644;11.448;2023-04-16T14:32:05;21.40;99.90
12655;DHT22;6392;44.644;11.448;2023-04-16T14:34:32;21.30;99.90
12655;DHT22;6392;44.644;11.448;2023-04-16T14:36:59;21.20;99.90
12655;DHT22;6392;44.644;11.448;2023-04-16T14:39:26;21.40;99.90
12655;DHT22;6392;44.644;11.448;2023-04-16T14:41:54;21.70;99.90
12655;DHT22;6392;44.644;11.448;2023-04-16T14:44:21;21.90;99.90
12655;DHT22;6392;44.644;11.448;2023-04-16T14:46:49;22.10;99.90
12655;DHT22;6392;44.644;11.448;2023-04-16T14:49:16;22.30;99.90
12655;DHT22;6392;44.644;11.448;2023-04-16T14:51:43;22.40;99.90
12655;DHT22;6392;44.644;11.448;2023-04-16T14:54:10;22.40;99.90
12655;DHT22;6392;44.644;11.448;2023-04-16T14:56:37;22.40;99.90
12655;DHT22;6392;44.644;11.448;2023-04-16T14:59:04;22.40;99.90
12655;DHT22;6392;44.644;11.448;2023-04-16T15:01:31;22.60;99.90
12655;DHT22;6392;44.644;11.448;2023-04-16T15:04:00;22.60;99.90
12655;DHT22;6392;44.644;11.448;2023-04-16T15:06:27;22.50;99.90
12655;DHT22;6392;44.644;11.448;2023-04-16T15:08:54;22.50;99.90
12655;DHT22;6392;44.644;11.448;2023-04-16T15:11:21;22.70;99.90
12655;DHT22;6392;44.644;11.448;2023-04-16T15:13:48;23.10;99.90
12655;DHT22;6392;44.644;11.448;2023-04-16T15:16:15;23.30;99.90
12655;DHT22;6392;44.644;11.448;2023-04-16T15:18:42;23.50;99.90
12655;DHT22;6392;44.644;11.448;2023-04-16T15:21:11;23.70;99.90
12655;DHT22;6392;44.644;11.448;2023-04-16T15:23:38;23.90;99.90
12655;DHT22;6392;44.644;11.448;2023-04-16T15:26:05;24.10;99.90
12655;DHT22;6392;44.644;11.448;2023-04-16T15:28:31;24.10;99.90
12655;DHT22;6392;44.644;11.448;2023-04-16T15:30:58;24.00;99.90